Time;durP1;ratioP1;P1;durP2;ratioP2;P2;SDS_P1;SDS_P2;PMS_P1;PMS_P2;Temp;Humidity;BMP_temperature;BMP_pressure;BME280_temperature;BME280_humidity;BME280_pressure;Samples;Min_cycle;Max_cycle;Signal;HPM_P1;HPM_P2
2023/08/30 00:00:45;;;;;;;6.80;5.07;;;15.90;77.60;;;;;;5053182;28;20483;-91
2023/08/30 00:03:12;;;;;;;5.38;4.45;;;15.90;77.80;;;;;;5055298;28;20056;-92
2023/08/30 00:05:39;;;;;;;6.50;4.78;;;15.80;77.90;;;;;;5053705;28;20048;-91
2023/08/30 00:08:05;;;;;;;6.30;4.63;;;15.90;78.00;;;;;;5050107;28;20415;-90
2023/08/30 00:10:31;;;;;;;7.03;4.45;;;15.90;78.10;;;;;;5051259;28;20021;-91
2023/08/30 00:12:57;;;;;;;5.72;4.72;;;15.90;78.10;;;;;;5047051;28;20033;-92
2023/08/30 00:15:22;;;;;;;5.60;4.25;;;15.90;78.30;;;;;;5066082;28;20090;-92
2023/08/30 00:17:48;;;;;;;5.90;4.78;;;15.80;78.30;;;;;;5048822;28;20037;-90
2023/08/30 00:20:13;;;;;;;7.35;5.15;;;15.80;78.50;;;;;;5052305;28;20040;-90
2023/08/30 00:22:39;;;;;;;8.88;5.80;;;15.80;78.70;;;;;;5053816;28;20376;-90
2023/08/30 00:25:05;;;;;;;7.68;5.65;;;15.70;79.00;;;;;;5052854;28;20044;-90
2023/08/30 00:27:31;;;;;;;6.10;4.88;;;15.70;79.40;;;;;;5053416;28;20029;-90
2023/08/30 00:29:56;;;;;;;8.10;5.10;;;15.70;79.60;;;;;;5054360;28;20043;-90
2023/08/30 00:32:22;;;;;;;6.30;4.88;;;15.70;79.60;;;;;;5050314;28;20071;-90
2023/08/30 00:34:51;;;;;;;7.03;5.50;;;15.70;79.50;;;;;;5053342;28;20035;-90
2023/08/30 00:37:17;;;;;;;5.47;4.70;;;15.70;79.50;;;;;;5035907;28;20052;-89
2023/08/30 00:39:42;;;;;;;6.70;5.10;;;15.70;79.40;;;;;;5053264;28;20025;-89
2023/08/30 00:42:09;;;;;;;5.72;4.70;;;15.70;79.40;;;;;;5052340;28;20072;-90
2023/08/30 00:44:34;;;;;;;6.43;5.18;;;15.70;79.30;;;;;;5052592;28;20043;-90
2023/08/30 00:47:02;;;;;;;6.10;4.40;;;15.70;79.40;;;;;;5036824;28;20088;-89
2023/08/30 00:49:30;;;;;;;5.50;4.15;;;15.70;79.40;;;;;;5036266;28;20074;-90
2023/08/30 00:51:57;;;;;;;6.45;4.60;;;15.70;79.30;;;;;;5053163;28;20474;-90
2023/08/30 00:54:23;;;;;;;6.13;4.85;;;15.60;79.30;;;;;;5052147;28;20479;-90
2023/08/30 00:56:50;;;;;;;6.18;5.20;;;15.60;79.30;;;;;;5053804;28;20155;-91
2023/08/30 00:59:16;;;;;;;5.63;5.03;;;15.60;79.30;;;;;;5036529;28;20406;-91
2023/08/30 01:01:41;;;;;;;5.47;4.28;;;15.60;79.50;;;;;;5053457;28;20017;-90
2023/08/30 01:04:07;;;;;;;6.90;4.72;;;15.60;79.40;;;;;;5056535;28;20031;-91
2023/08/30 01:06:35;;;;;;;5.88;4.97;;;15.60;79.40;;;;;;5073553;28;20084;-90
2023/08/30 01:09:01;;;;;;;7.93;5.00;;;15.50;79.60;;;;;;5035757;28;20021;-91
2023/08/30 01:11:35;;;;;;;5.88;4.50;;;15.50;79.90;;;;;;5043003;28;20021;-91
2023/08/30 01:14:04;;;;;;;5.68;4.70;;;15.40;79.90;;;;;;5053490;28;20040;-91
2023/08/30 01:16:31;;;;;;;5.63;4.50;;;15.40;80.00;;;;;;5038787;28;20499;-90
2023/08/30 01:18:59;;;;;;;5.95;4.53;;;15.30;80.10;;;;;;5050268;28;20028;-91
2023/08/30 01:21:53;;;;;;;5.65;4.47;;;15.30;80.80;;;;;;5031377;28;20022;-90
2023/08/30 01:24:41;;;;;;;5.82;4.65;;;15.30;80.30;;;;;;5042070;28;20095;-90
2023/08/30 01:27:11;;;;;;;7.03;5.57;;;15.20;80.40;;;;;;5003219;28;20031;-90
2023/08/30 01:29:40;;;;;;;6.68;4.88;;;15.10;80.60;;;;;;5039502;28;20020;-89
2023/08/30 01:32:09;;;;;;;6.68;5.53;;;15.00;80.70;;;;;;5054204;28;20019;-90
2023/08/30 01:34:36;;;;;;;6.20;4.80;;;15.00;81.00;;;;;;5057110;28;20037;-90
2023/08/30 01:37:03;;;;;;;7.15;5.22;;;15.00;81.10;;;;;;5067481;28;20431;-89
2023/08/30 01:39:30;;;;;;;7.00;5.35;;;14.90;81.10;;;;;;5056250;28;20025;-90
2023/08/30 01:41:58;;;;;;;6.50;5.50;;;15.00;81.00;;;;;;5064000;28;20581;-90
2023/08/30 01:44:27;;;;;;;6.47;5.13;;;14.90;81.10;;;;;;5050841;28;20021;-90
2023/08/30 01:46:53;;;;;;;6.32;5.53;;;14.90;81.20;;;;;;5047310;28;20120;-90
2023/08/30 01:49:18;;;;;;;6.90;5.10;;;14.90;81.30;;;;;;5051549;28;20345;-90
2023/08/30 01:51:44;;;;;;;7.32;4.95;;;14.90;81.30;;;;;;5052352;28;20021;-90
2023/08/30 01:54:13;;;;;;;5.43;4.55;;;14.90;81.20;;;;;;5049026;28;20091;-90
2023/08/30 01:56:38;;;;;;;7.40;4.72;;;14.90;81.10;;;;;;5052969;28;20364;-89
2023/08/30 01:59:04;;;;;;;6.18;5.20;;;14.90;81.10;;;;;;5054123;28;20017;-90
2023/08/30 02:01:29;;;;;;;7.15;4.85;;;15.00;81.10;;;;;;5053697;28;20045;-90
2023/08/30 02:03:55;;;;;;;6.13;4.75;;;15.00;81.10;;;;;;5051063;28;20479;-90
2023/08/30 02:06:30;;;;;;;6.72;5.30;;;15.00;81.00;;;;;;5043916;28;20025;-90
2023/08/30 02:09:21;;;;;;;6.40;5.30;;;15.00;81.10;;;;;;5054746;28;20028;-91
2023/08/30 02:11:49;;;;;;;7.28;5.28;;;14.90;81.00;;;;;;5051090;28;20021;-89
2023/08/30 02:14:17;;;;;;;6.72;4.80;;;15.00;81.20;;;;;;5054733;28;20044;-90
2023/08/30 02:16:45;;;;;;;6.38;5.35;;;15.00;81.10;;;;;;5049575;28;20032;-89
2023/08/30 02:19:12;;;;;;;6.35;5.10;;;15.00;81.10;;;;;;5035628;28;20025;-89
2023/08/30 02:21:39;;;;;;;7.03;5.93;;;15.00;81.10;;;;;;5037212;28;20108;-89
2023/08/30 02:24:05;;;;;;;9.35;6.00;;;15.00;81.00;;;;;;5055333;28;20337;-90
2023/08/30 02:26:30;;;;;;;7.90;6.25;;;15.10;81.00;;;;;;5054122;28;20063;-90
2023/08/30 02:28:56;;;;;;;7.80;5.53;;;15.10;81.00;;;;;;5048802;28;20056;-91
2023/08/30 02:31:22;;;;;;;6.80;5.45;;;15.10;80.90;;;;;;5055549;28;20028;-90
2023/08/30 02:33:47;;;;;;;7.43;5.70;;;15.10;80.70;;;;;;5048236;28;20029;-90
2023/08/30 02:36:13;;;;;;;9.60;7.47;;;15.10;80.50;;;;;;5057181;28;20024;-89
2023/08/30 02:38:38;;;;;;;7.95;6.03;;;15.20;80.40;;;;;;5074906;28;20036;-89
2023/08/30 02:41:04;;;;;;;8.25;7.05;;;15.10;80.30;;;;;;5057804;28;20027;-90
2023/08/30 02:43:30;;;;;;;8.50;6.65;;;15.20;80.30;;;;;;5045435;28;20457;-90
2023/08/30 02:45:56;;;;;;;7.95;6.30;;;15.20;80.30;;;;;;5049238;28;20452;-90
2023/08/30 02:48:21;;;;;;;7.95;6.28;;;15.10;80.20;;;;;;5047017;28;20028;-90
2023/08/30 02:50:47;;;;;;;7.65;5.90;;;15.20;80.10;;;;;;5054292;28;20782;-90
2023/08/30 02:53:13;;;;;;;7.95;6.38;;;15.20;80.00;;;;;;5059707;28;20025;-91
2023/08/30 02:55:38;;;;;;;8.18;6.28;;;15.20;79.80;;;;;;5050462;28;20041;-90
2023/08/30 02:58:04;;;;;;;7.95;6.07;;;15.30;79.80;;;;;;5060600;28;20086;-91
2023/08/30 03:00:29;;;;;;;8.98;5.53;;;15.30;79.60;;;;;;5056769;28;20104;-91
2023/08/30 03:02:55;;;;;;;7.13;5.43;;;15.30;79.40;;;;;;5057265;28;20029;-88
2023/08/30 03:05:20;;;;;;;7.85;5.82;;;15.40;79.40;;;;;;5044201;28;20417;-88
2023/08/30 03:07:46;;;;;;;8.07;6.40;;;15.40;79.30;;;;;;5055175;28;20033;-88
2023/08/30 03:10:12;;;;;;;6.72;5.18;;;15.40;79.20;;;;;;5055233;28;20059;-89
2023/08/30 03:12:38;;;;;;;7.85;5.88;;;15.40;79.10;;;;;;5055299;28;20044;-88
2023/08/30 03:15:04;;;;;;;8.27;6.63;;;15.40;78.90;;;;;;5055272;28;20040;-87
2023/08/30 03:17:30;;;;;;;8.40;6.30;;;15.40;78.80;;;;;;5037103;28;20478;-87
2023/08/30 03:19:56;;;;;;;8.55;6.53;;;15.40;78.70;;;;;;5038392;28;20025;-89
2023/08/30 03:22:22;;;;;;;8.13;6.57;;;15.40;78.70;;;;;;5060478;28;20029;-88
2023/08/30 03:24:49;;;;;;;8.13;6.40;;;15.40;78.70;;;;;;5051509;28;20402;-89
2023/08/30 03:27:15;;;;;;;9.57;6.95;;;15.40;78.80;;;;;;5039189;28;20024;-87
2023/08/30 03:29:41;;;;;;;7.80;6.43;;;15.40;78.90;;;;;;5057511;28;20027;-89
2023/08/30 03:32:09;;;;;;;8.75;6.53;;;15.30;79.00;;;;;;5055113;28;20024;-90
2023/08/30 03:34:34;;;;;;;8.65;6.72;;;15.30;79.10;;;;;;5042538;28;20061;-90
2023/08/30 03:37:00;;;;;;;8.18;6.10;;;15.30;79.20;;;;;;5052119;28;20068;-90
2023/08/30 03:39:25;;;;;;;7.50;5.80;;;15.30;79.30;;;;;;5036852;28;20025;-90
2023/08/30 03:41:51;;;;;;;10.13;7.57;;;15.30;79.30;;;;;;5055856;28;20017;-92
2023/08/30 03:44:16;;;;;;;10.02;7.63;;;15.30;80.00;;;;;;5050181;28;20407;-90
2023/08/30 03:46:42;;;;;;;12.48;7.93;;;15.20;79.60;;;;;;5052077;28;20044;-91
2023/08/30 03:49:22;;;;;;;9.15;7.15;;;15.10;79.70;;;;;;5052261;28;20095;-91
2023/08/30 03:51:48;;;;;;;9.77;7.18;;;15.10;79.80;;;;;;5045311;28;20047;-90
2023/08/30 03:54:16;;;;;;;10.93;7.82;;;15.10;79.80;;;;;;5062136;28;20033;-88
2023/08/30 03:56:42;;;;;;;9.77;7.85;;;15.00;79.80;;;;;;5049699;28;20020;-90
2023/08/30 03:59:08;;;;;;;9.40;7.50;;;14.90;80.00;;;;;;5056089;28;20091;-90
2023/08/30 04:01:34;;;;;;;10.02;7.38;;;14.90;80.10;;;;;;5052435;28;20472;-89
2023/08/30 04:03:59;;;;;;;8.15;6.60;;;14.90;80.20;;;;;;5048214;28;20483;-90
2023/08/30 04:06:25;;;;;;;8.75;6.22;;;14.90;80.30;;;;;;5057968;28;20053;-89
2023/08/30 04:08:50;;;;;;;10.40;7.20;;;14.90;80.20;;;;;;5055963;28;20025;-89
2023/08/30 04:11:16;;;;;;;8.98;6.78;;;14.90;80.20;;;;;;5037278;28;20485;-89
2023/08/30 04:13:41;;;;;;;8.88;5.88;;;14.80;80.30;;;;;;5052898;28;20134;-89
2023/08/30 04:16:07;;;;;;;7.85;6.30;;;14.80;80.30;;;;;;5044147;28;20487;-89
2023/08/30 04:18:33;;;;;;;7.43;5.60;;;14.80;80.20;;;;;;5049985;28;20017;-89
2023/08/30 04:20:59;;;;;;;6.63;5.35;;;14.90;80.30;;;;;;5048560;28;20094;-88
2023/08/30 04:23:24;;;;;;;7.20;5.90;;;14.90;80.30;;;;;;5035376;28;20029;-88
2023/08/30 04:25:50;;;;;;;6.88;5.30;;;14.80;80.20;;;;;;5048484;28;20036;-89
2023/08/30 04:28:15;;;;;;;8.15;5.28;;;14.80;80.30;;;;;;5032663;28;20029;-89
2023/08/30 04:30:41;;;;;;;6.95;5.22;;;14.80;80.20;;;;;;5048778;28;20037;-89
2023/08/30 04:33:07;;;;;;;8.10;6.28;;;14.80;80.30;;;;;;5033617;28;20021;-89
2023/08/30 04:35:33;;;;;;;7.20;5.60;;;14.80;81.00;;;;;;5049369;28;20040;-89
2023/08/30 04:37:59;;;;;;;6.60;5.32;;;14.70;80.40;;;;;;5049393;28;20511;-89
2023/08/30 04:40:25;;;;;;;8.38;5.90;;;14.80;80.40;;;;;;5064893;28;20025;-89
2023/08/30 04:42:50;;;;;;;9.75;6.85;;;14.70;80.50;;;;;;5048544;28;20475;-86
2023/08/30 04:45:16;;;;;;;8.60;6.78;;;14.60;80.60;;;;;;5048681;28;20101;-87
2023/08/30 04:47:43;;;;;;;8.10;6.07;;;14.60;80.80;;;;;;5047764;28;20082;-86
2023/08/30 04:50:09;;;;;;;7.95;6.13;;;14.60;80.80;;;;;;5046860;28;20542;-87
2023/08/30 04:52:35;;;;;;;7.90;6.55;;;14.60;80.90;;;;;;5030798;28;20061;-88
2023/08/30 04:55:00;;;;;;;7.45;5.90;;;14.60;80.90;;;;;;5031941;28;20040;-87
2023/08/30 04:57:26;;;;;;;9.73;6.22;;;14.50;80.90;;;;;;5033213;28;20009;-88
2023/08/30 04:59:51;;;;;;;7.55;5.88;;;14.50;81.00;;;;;;5047497;28;20040;-88
2023/08/30 05:02:17;;;;;;;9.10;6.85;;;14.50;81.10;;;;;;5047836;28;20512;-87
2023/08/30 05:04:43;;;;;;;7.93;6.50;;;14.50;81.20;;;;;;5031119;28;20067;-88
2023/08/30 05:07:08;;;;;;;7.50;6.07;;;14.50;81.10;;;;;;5031624;28;21074;-88
2023/08/30 05:09:34;;;;;;;7.25;5.25;;;14.50;81.00;;;;;;5052802;28;20025;-89
2023/08/30 05:12:00;;;;;;;7.45;5.85;;;14.50;81.00;;;;;;5048716;28;20082;-87
2023/08/30 05:14:26;;;;;;;6.55;4.85;;;14.60;81.00;;;;;;5027560;28;20068;-88
2023/08/30 05:16:52;;;;;;;9.18;5.63;;;14.60;80.90;;;;;;5045036;28;20063;-89
2023/08/30 05:19:18;;;;;;;8.57;5.55;;;14.60;80.90;;;;;;5048503;28;20188;-88
2023/08/30 05:21:44;;;;;;;6.93;5.50;;;14.60;80.80;;;;;;5048624;28;20371;-90
2023/08/30 05:24:10;;;;;;;8.40;5.97;;;14.70;80.80;;;;;;5031381;28;20029;-89
2023/08/30 05:26:36;;;;;;;6.68;5.25;;;14.70;80.60;;;;;;5034498;28;20013;-89
2023/08/30 05:29:02;;;;;;;9.15;6.43;;;14.70;80.60;;;;;;5051933;28;20167;-89
2023/08/30 05:31:28;;;;;;;7.70;6.18;;;14.80;80.70;;;;;;5029817;28;20029;-88
2023/08/30 05:33:53;;;;;;;8.02;5.88;;;15.20;80.30;;;;;;5045129;28;20033;-87
2023/08/30 05:36:19;;;;;;;7.93;5.75;;;15.60;79.40;;;;;;5046280;28;20032;-88
2023/08/30 05:38:44;;;;;;;8.43;6.18;;;16.10;78.30;;;;;;5042855;28;20017;-87
2023/08/30 05:41:10;;;;;;;8.50;5.80;;;16.50;77.00;;;;;;5044275;28;20044;-88
2023/08/30 05:43:35;;;;;;;6.90;5.20;;;16.60;76.10;;;;;;5049267;28;20009;-88
2023/08/30 05:46:02;;;;;;;7.60;6.13;;;16.50;76.00;;;;;;5044993;28;20032;-88
2023/08/30 05:48:30;;;;;;;7.05;5.35;;;16.30;76.20;;;;;;5047602;28;20345;-90
2023/08/30 05:50:55;;;;;;;6.80;5.30;;;16.10;76.50;;;;;;5043345;28;20029;-90
2023/08/30 05:53:21;;;;;;;7.10;5.38;;;16.10;76.90;;;;;;5040422;28;20356;-88
2023/08/30 05:55:46;;;;;;;7.38;5.60;;;16.00;77.10;;;;;;5026607;28;20036;-84
2023/08/30 05:58:13;;;;;;;7.63;5.80;;;15.90;77.40;;;;;;5025892;28;20024;-86
2023/08/30 06:00:39;;;;;;;9.10;6.75;;;15.80;77.50;;;;;;5046681;28;20380;-86
2023/08/30 06:03:05;;;;;;;9.35;7.43;;;15.80;77.90;;;;;;5046328;28;20470;-86
2023/08/30 06:05:30;;;;;;;8.65;6.80;;;15.70;78.10;;;;;;5050813;28;20029;-86
2023/08/30 06:07:57;;;;;;;9.23;6.72;;;16.30;78.10;;;;;;5045135;28;20119;-86
2023/08/30 06:10:23;;;;;;;10.05;6.90;;;16.60;76.50;;;;;;5032414;28;20017;-85
2023/08/30 06:12:48;;;;;;;9.75;7.70;;;16.60;75.80;;;;;;5042830;28;20029;-85
2023/08/30 06:15:14;;;;;;;7.22;5.50;;;16.50;75.80;;;;;;5027227;28;20521;-87
2023/08/30 06:17:39;;;;;;;10.70;7.15;;;16.50;75.90;;;;;;5045361;28;20032;-86
2023/08/30 06:20:06;;;;;;;10.15;7.70;;;16.40;76.00;;;;;;5046263;28;20036;-85
2023/08/30 06:22:31;;;;;;;12.23;8.95;;;16.90;76.40;;;;;;5043175;28;20059;-85
2023/08/30 06:24:57;;;;;;;10.07;7.35;;;17.60;74.70;;;;;;5048207;28;20146;-86
2023/08/30 06:27:23;;;;;;;8.15;6.65;;;18.30;73.00;;;;;;5047783;28;20075;-86
2023/08/30 06:29:50;;;;;;;8.68;7.57;;;18.30;71.70;;;;;;5030535;28;20064;-85
2023/08/30 06:32:16;;;;;;;8.75;7.00;;;17.80;71.70;;;;;;5028421;28;20036;-86
2023/08/30 06:34:42;;;;;;;8.40;6.60;;;17.40;72.80;;;;;;5031569;28;20033;-85
2023/08/30 06:37:09;;;;;;;9.50;6.65;;;17.10;73.70;;;;;;5048752;28;20067;-86
2023/08/30 06:39:36;;;;;;;8.07;6.55;;;16.80;74.60;;;;;;5045169;28;20448;-85
2023/08/30 06:42:02;;;;;;;8.68;6.78;;;16.70;75.20;;;;;;5023645;28;20021;-84
2023/08/30 06:44:29;;;;;;;7.90;6.60;;;16.50;75.80;;;;;;5048742;28;20344;-86
2023/08/30 06:46:55;;;;;;;9.98;7.68;;;16.40;76.40;;;;;;5031557;28;20025;-86
2023/08/30 06:49:21;;;;;;;10.45;7.88;;;16.40;76.80;;;;;;5047725;28;20025;-85
2023/08/30 06:51:47;;;;;;;9.45;7.90;;;16.20;77.20;;;;;;5027106;28;20083;-86
2023/08/30 06:54:12;;;;;;;14.95;7.93;;;16.20;77.60;;;;;;5062871;28;20039;-86
2023/08/30 06:56:38;;;;;;;9.70;7.80;;;16.10;77.90;;;;;;5042320;28;20040;-87
2023/08/30 06:59:03;;;;;;;8.30;6.13;;;16.20;78.10;;;;;;5049049;28;20044;-87
2023/08/30 07:01:29;;;;;;;8.55;7.65;;;16.20;78.10;;;;;;5046648;28;20249;-87
2023/08/30 07:03:55;;;;;;;14.18;8.98;;;16.20;78.20;;;;;;5044299;28;20032;-87
2023/08/30 07:06:20;;;;;;;8.80;7.45;;;16.10;78.60;;;;;;5052915;28;20031;-87
2023/08/30 07:08:46;;;;;;;10.88;7.65;;;16.10;78.80;;;;;;5032513;28;20036;-87
2023/08/30 07:11:12;;;;;;;11.23;8.32;;;16.10;78.90;;;;;;5046433;28;20442;-84
2023/08/30 07:13:37;;;;;;;9.10;7.18;;;16.10;79.20;;;;;;5040836;28;20041;-86
2023/08/30 07:16:03;;;;;;;9.80;8.10;;;16.10;79.40;;;;;;5062946;28;20025;-87
2023/08/30 07:18:29;;;;;;;8.75;6.82;;;16.10;79.70;;;;;;5028081;28;20432;-86
2023/08/30 07:20:55;;;;;;;11.00;7.97;;;16.10;79.80;;;;;;5052043;28;20150;-87
2023/08/30 07:23:20;;;;;;;9.07;7.10;;;16.10;80.10;;;;;;5049524;28;20029;-87
2023/08/30 07:25:46;;;;;;;9.90;8.20;;;16.00;80.60;;;;;;5050135;28;20021;-87
2023/08/30 07:28:11;;;;;;;9.18;7.63;;;16.00;81.00;;;;;;5048988;28;20056;-87
2023/08/30 07:30:37;;;;;;;9.98;7.68;;;16.00;81.30;;;;;;5050492;28;20303;-88
2023/08/30 07:33:04;;;;;;;11.50;9.77;;;15.90;81.70;;;;;;5030741;28;20026;-89
2023/08/30 07:35:30;;;;;;;11.45;8.88;;;15.90;82.60;;;;;;5052175;28;20044;-89
2023/08/30 07:37:56;;;;;;;10.95;8.98;;;15.80;83.00;;;;;;5053724;28;20040;-88
2023/08/30 07:40:26;;;;;;;10.43;8.85;;;15.70;83.40;;;;;;5034661;28;20036;-88
2023/08/30 07:42:52;;;;;;;10.93;8.10;;;15.60;84.10;;;;;;5041176;28;20017;-87
2023/08/30 07:45:18;;;;;;;9.57;8.52;;;15.60;84.60;;;;;;5045572;28;20025;-88
2023/08/30 07:47:43;;;;;;;12.70;10.50;;;15.60;85.20;;;;;;5041293;28;20074;-88
2023/08/30 07:50:09;;;;;;;11.50;9.50;;;15.50;86.00;;;;;;5058702;28;20112;-86
2023/08/30 07:52:34;;;;;;;9.35;7.63;;;15.40;86.70;;;;;;5051502;28;20024;-87
2023/08/30 07:55:00;;;;;;;10.90;8.38;;;15.30;87.50;;;;;;5063699;28;20028;-87
2023/08/30 07:57:26;;;;;;;12.63;8.00;;;15.30;87.90;;;;;;5069680;28;20486;-87
2023/08/30 07:59:52;;;;;;;13.23;10.20;;;15.30;88.10;;;;;;5061768;28;20499;-87
2023/08/30 08:02:17;;;;;;;9.85;7.70;;;15.20;88.90;;;;;;5035061;28;20133;-87
2023/08/30 08:04:43;;;;;;;14.20;10.52;;;15.20;89.50;;;;;;5055183;28;20547;-87
2023/08/30 08:07:09;;;;;;;11.52;8.90;;;15.10;89.90;;;;;;5041317;28;20017;-87
2023/08/30 08:09:34;;;;;;;11.80;7.93;;;15.10;90.20;;;;;;5054030;28;20127;-87
2023/08/30 08:12:00;;;;;;;8.25;6.30;;;15.10;90.40;;;;;;5055489;28;20097;-87
2023/08/30 08:14:26;;;;;;;9.90;7.60;;;15.10;90.50;;;;;;5033681;28;20387;-87
2023/08/30 08:16:51;;;;;;;9.13;6.88;;;15.10;90.50;;;;;;5056507;28;20044;-87
2023/08/30 08:19:17;;;;;;;9.00;6.35;;;15.10;90.50;;;;;;5052246;28;20029;-87
2023/08/30 08:21:43;;;;;;;12.23;8.07;;;15.10;90.50;;;;;;5070184;28;20033;-87
2023/08/30 08:24:08;;;;;;;9.63;6.50;;;15.10;90.60;;;;;;5060581;28;20025;-87
2023/08/30 08:26:34;;;;;;;9.68;6.93;;;15.20;90.60;;;;;;5053242;28;20028;-87
2023/08/30 08:28:59;;;;;;;9.88;6.93;;;15.10;90.70;;;;;;5059645;28;20035;-87
2023/08/30 08:31:27;;;;;;;9.93;6.72;;;15.20;90.80;;;;;;5066620;28;20111;-88
2023/08/30 08:34:11;;;;;;;8.43;6.28;;;15.10;90.90;;;;;;5037177;28;20029;-87
2023/08/30 08:36:41;;;;;;;7.43;5.18;;;15.10;91.00;;;;;;5054605;28;20025;-87
2023/08/30 08:39:09;;;;;;;7.57;5.32;;;15.20;91.00;;;;;;5052057;28;20338;-87
2023/08/30 08:41:44;;;;;;;8.82;5.93;;;15.20;91.00;;;;;;5066748;28;20033;-87
2023/08/30 08:44:11;;;;;;;7.45;5.70;;;15.20;91.00;;;;;;5049691;28;20028;-87
2023/08/30 08:46:38;;;;;;;6.63;4.90;;;15.30;91.00;;;;;;5040694;28;20495;-87
2023/08/30 08:49:16;;;;;;;7.82;5.60;;;15.30;91.10;;;;;;5051639;28;20016;-87
2023/08/30 08:51:43;;;;;;;9.73;7.80;;;15.30;91.10;;;;;;5055384;28;20118;-87
2023/08/30 08:54:11;;;;;;;6.78;5.63;;;15.30;91.30;;;;;;5050625;28;20029;-87
2023/08/30 08:56:37;;;;;;;8.10;6.25;;;15.30;91.40;;;;;;5053388;28;20100;-87
2023/08/30 08:59:05;;;;;;;8.50;6.57;;;15.30;91.30;;;;;;5038897;28;20025;-87
2023/08/30 09:01:33;;;;;;;7.43;6.00;;;15.30;91.40;;;;;;5041385;28;20028;-87
2023/08/30 09:03:59;;;;;;;9.55;7.57;;;15.40;91.50;;;;;;5055421;28;20021;-88
2023/08/30 09:06:25;;;;;;;11.82;9.88;;;15.40;91.50;;;;;;5060358;28;20074;-88
2023/08/30 09:08:51;;;;;;;10.55;8.68;;;15.40;91.50;;;;;;5050532;28;20025;-87
2023/08/30 09:11:16;;;;;;;9.88;8.27;;;15.30;91.80;;;;;;5055365;28;20414;-87
2023/08/30 09:13:44;;;;;;;8.85;7.57;;;15.30;91.90;;;;;;5052966;28;20311;-87
2023/08/30 09:16:15;;;;;;;12.45;10.25;;;15.30;92.00;;;;;;5042178;28;20517;-87
2023/08/30 09:18:42;;;;;;;9.40;7.38;;;15.30;92.10;;;;;;5045676;28;20029;-88
2023/08/30 09:21:11;;;;;;;9.32;7.85;;;15.30;92.10;;;;;;5049763;28;20025;-87
2023/08/30 09:23:37;;;;;;;10.70;7.30;;;15.30;92.30;;;;;;5051304;28;20028;-89
2023/08/30 09:26:03;;;;;;;9.30;7.57;;;15.30;92.40;;;;;;5051340;28;20056;-87
2023/08/30 09:28:29;;;;;;;8.80;7.43;;;15.30;92.50;;;;;;5046974;28;20036;-88
2023/08/30 09:30:59;;;;;;;11.32;9.65;;;15.20;92.60;;;;;;5047882;28;20040;-88
2023/08/30 09:33:32;;;;;;;7.60;6.80;;;15.20;92.70;;;;;;5038599;28;20074;-87
2023/08/30 09:35:59;;;;;;;9.25;7.32;;;15.30;92.70;;;;;;5049659;28;20021;-87
2023/08/30 09:38:25;;;;;;;10.23;7.85;;;15.30;92.70;;;;;;5029893;28;20017;-87
2023/08/30 09:40:52;;;;;;;8.05;6.75;;;15.40;92.70;;;;;;5040836;28;20051;-88
2023/08/30 09:43:24;;;;;;;8.85;6.30;;;15.40;92.70;;;;;;5049814;28;20482;-88
2023/08/30 09:45:52;;;;;;;;;;;15.40;92.70;;;;;;5049973;28;20037;-88
2023/08/30 09:48:28;;;;;;;6.97;5.57;;;15.60;92.50;;;;;;5047369;28;19916;-87
2023/08/30 09:50:54;;;;;;;7.25;6.15;;;15.50;92.60;;;;;;5045862;28;20029;-89
2023/08/30 09:53:25;;;;;;;8.95;6.85;;;15.50;92.60;;;;;;5042450;28;20025;-88
2023/08/30 09:55:52;;;;;;;7.97;7.03;;;15.50;92.80;;;;;;5042846;28;20033;-88
2023/08/30 09:58:19;;;;;;;7.32;6.20;;;15.50;92.90;;;;;;5036128;28;20315;-88
2023/08/30 10:00:46;;;;;;;6.30;5.03;;;15.60;93.00;;;;;;5047817;28;20135;-88
2023/08/30 10:03:12;;;;;;;6.28;4.70;;;15.60;93.00;;;;;;5054713;28;20032;-89
2023/08/30 10:05:39;;;;;;;7.78;6.50;;;15.60;93.00;;;;;;5065651;28;20475;-88
2023/08/30 10:08:07;;;;;;;6.57;5.18;;;15.70;93.00;;;;;;5050336;28;20044;-88
2023/08/30 10:10:35;;;;;;;6.75;5.90;;;15.70;93.00;;;;;;5053097;28;20033;-89
2023/08/30 10:13:01;;;;;;;8.63;6.00;;;15.70;93.00;;;;;;5067632;28;20032;-88
2023/08/30 10:15:31;;;;;;;7.05;5.25;;;15.80;93.10;;;;;;5056143;28;20040;-89
2023/08/30 10:17:58;;;;;;;8.30;6.68;;;15.80;93.10;;;;;;5052937;28;20056;-86
2023/08/30 10:20:25;;;;;;;8.18;7.20;;;15.80;93.10;;;;;;5032606;28;20045;-87
2023/08/30 10:22:53;;;;;;;7.43;5.70;;;15.90;93.30;;;;;;5036893;28;20116;-88
2023/08/30 10:25:22;;;;;;;7.07;6.30;;;15.90;93.30;;;;;;5048466;28;20383;-88
2023/08/30 10:27:50;;;;;;;6.85;4.60;;;15.90;93.30;;;;;;5031868;28;20032;-87
2023/08/30 10:30:19;;;;;;;5.50;4.95;;;16.00;93.40;;;;;;5048217;28;20028;-88
2023/08/30 10:32:45;;;;;;;7.60;6.07;;;16.00;93.20;;;;;;5053224;28;20017;-88
2023/08/30 10:35:13;;;;;;;7.65;6.30;;;16.10;93.20;;;;;;5032197;28;20471;-87
2023/08/30 10:37:39;;;;;;;6.55;5.47;;;16.10;93.30;;;;;;5038115;28;20120;-89
2023/08/30 10:40:05;;;;;;;6.47;5.57;;;16.10;93.60;;;;;;5050368;28;20021;-88
2023/08/30 10:42:32;;;;;;;5.53;4.72;;;16.20;93.30;;;;;;5048693;28;20025;-88
2023/08/30 10:45:07;;;;;;;6.15;5.30;;;16.30;93.20;;;;;;5030899;28;20033;-89
2023/08/30 10:47:38;;;;;;;6.50;5.13;;;16.40;93.10;;;;;;5034830;28;20029;-88
2023/08/30 10:50:08;;;;;;;6.57;5.87;;;16.50;93.00;;;;;;5039849;28;20126;-87
2023/08/30 10:52:34;;;;;;;8.40;7.05;;;16.60;93.00;;;;;;5049257;28;20025;-88
2023/08/30 10:55:16;;;;;;;7.70;5.95;;;16.60;93.00;;;;;;5049324;28;20120;-87
2023/08/30 10:57:43;;;;;;;5.80;5.20;;;16.80;93.00;;;;;;5048078;28;20056;-88
2023/08/30 11:00:18;;;;;;;8.00;7.20;;;17.00;92.80;;;;;;5045028;28;20426;-88
2023/08/30 11:02:50;;;;;;;6.22;5.55;;;17.00;92.70;;;;;;5045897;28;21650;-86
2023/08/30 11:05:17;;;;;;;7.95;6.80;;;17.10;92.60;;;;;;5027418;28;20024;-86
2023/08/30 11:07:46;;;;;;;8.35;6.38;;;17.20;92.50;;;;;;5047530;28;20043;-87
2023/08/30 11:10:12;;;;;;;7.07;6.38;;;17.20;92.50;;;;;;5044714;28;20377;-87
2023/08/30 11:12:41;;;;;;;7.10;6.40;;;17.40;92.50;;;;;;5053826;28;20032;-86
2023/08/30 11:15:08;;;;;;;7.57;6.85;;;17.70;92.30;;;;;;5032879;28;20040;-88
2023/08/30 11:17:34;;;;;;;6.15;5.55;;;17.80;92.00;;;;;;5056381;28;20029;-92
2023/08/30 11:20:16;;;;;;;9.80;8.80;;;17.90;91.80;;;;;;5033932;28;20360;-88
2023/08/30 11:22:43;;;;;;;;;;;17.90;91.70;;;;;;5034098;28;20103;-87
2023/08/30 11:25:10;;;;;;;7.63;6.85;;;17.80;91.70;;;;;;5052316;28;20344;-91
2023/08/30 11:27:35;;;;;;;7.72;6.90;;;17.80;91.90;;;;;;5051336;28;20418;-89
2023/08/30 11:30:05;;;;;;;7.72;6.93;;;17.80;91.90;;;;;;5051828;28;20032;-88
2023/08/30 11:32:44;;;;;;;7.50;6.72;;;18.00;91.80;;;;;;5032895;28;20021;-89
2023/08/30 11:35:09;;;;;;;7.65;6.68;;;18.10;91.70;;;;;;5032630;28;20037;-86
2023/08/30 11:37:35;;;;;;;7.22;6.53;;;18.10;91.50;;;;;;5048438;28;20090;-82
2023/08/30 11:40:06;;;;;;;7.32;6.60;;;18.20;91.50;;;;;;5034931;28;20021;-85
2023/08/30 11:42:32;;;;;;;6.10;5.50;;;18.20;91.20;;;;;;5049197;28;20021;-82
2023/08/30 11:44:59;;;;;;;5.43;4.93;;;18.20;91.10;;;;;;5044569;28;20044;-82
2023/08/30 11:47:26;;;;;;;7.72;5.43;;;18.30;91.00;;;;;;5025138;28;20039;-87
2023/08/30 11:49:56;;;;;;;5.28;4.72;;;18.40;90.80;;;;;;5035823;28;20132;-85
2023/08/30 11:52:23;;;;;;;6.05;5.13;;;18.50;90.70;;;;;;5046070;28;20031;-85
2023/08/30 11:54:50;;;;;;;5.22;4.70;;;18.70;90.40;;;;;;5047997;28;20130;-86
2023/08/30 11:57:16;;;;;;;5.32;4.78;;;18.80;90.20;;;;;;5045293;28;20021;-85
2023/08/30 11:59:42;;;;;;;5.30;4.35;;;18.90;89.80;;;;;;5021070;28;20060;-81
2023/08/30 12:02:08;;;;;;;5.30;4.40;;;19.00;88.90;;;;;;5026489;28;20052;-82
2023/08/30 12:04:45;;;;;;;4.57;3.65;;;19.00;88.30;;;;;;5046602;28;20029;-82
2023/08/30 12:07:24;;;;;;;6.15;4.13;;;19.20;87.90;;;;;;5045615;28;20029;-85
2023/08/30 12:09:49;;;;;;;5.65;4.80;;;19.40;87.00;;;;;;5046863;28;20021;-83
2023/08/30 12:12:15;;;;;;;4.95;3.65;;;19.40;84.80;;;;;;5043274;28;20035;-82
2023/08/30 12:14:40;;;;;;;5.70;3.58;;;19.30;84.30;;;;;;5044245;28;20044;-82
2023/08/30 12:17:08;;;;;;;5.35;3.35;;;19.30;83.80;;;;;;5044734;28;20020;-83
2023/08/30 12:19:34;;;;;;;4.43;2.97;;;19.20;83.80;;;;;;5028506;28;20078;-83
2023/08/30 12:22:07;;;;;;;4.05;2.70;;;19.20;83.50;;;;;;5045814;28;20099;-85
2023/08/30 12:24:46;;;;;;;4.97;3.17;;;19.30;83.40;;;;;;5046916;28;20025;-83
2023/08/30 12:27:13;;;;;;;4.88;2.90;;;19.10;82.60;;;;;;5044906;28;20507;-85
2023/08/30 12:29:39;;;;;;;5.18;3.22;;;19.10;82.60;;;;;;5026689;28;20120;-84
2023/08/30 12:32:06;;;;;;;6.25;3.47;;;19.00;82.20;;;;;;5028788;28;20391;-82
2023/08/30 12:34:32;;;;;;;5.00;2.75;;;18.90;81.80;;;;;;5044607;28;20496;-82
2023/08/30 12:36:57;;;;;;;4.88;2.47;;;19.00;81.80;;;;;;5047854;28;20067;-82
2023/08/30 12:39:23;;;;;;;3.95;2.40;;;19.20;81.80;;;;;;5028874;28;20530;-83
2023/08/30 12:41:49;;;;;;;5.75;2.25;;;19.30;80.90;;;;;;5046550;28;20121;-82
2023/08/30 12:44:14;;;;;;;3.58;2.30;;;19.40;80.40;;;;;;5047723;28;20478;-83